CYEVCYVQ

Guest
Details From CYEV - INUVIK MIKE ZUBKO
To CYVQ - NORMAN WELLS
Flight Number -
Tags generated
Created
Modified
Stats Distance 243 nm / 450 km
Max Altitude 17,000 ft / 5,182 m
Waypoints 4
Social Downloads 0
Likes 0
Share VATSIM

Download

Looking for another format? Having issues loading an existing format? Contact us
Advertisement - Login to hide

Notes

Basic altitude profile: - Ascent Rate: 2500ft/min - Ascent Speed: 250kts - Cruise Altitude: 35000ft - Cruise Speed: 420kts - Descent Rate: 1500ft/min - Descent Speed: 250kts Options: - Use NATs: yes - Use PACOTS: yes - Use low airways: yes - Use high airways: yes

Route

CYEV YEV J516 YGH CYVQ

ID Type Via Altitude Latitude Longitude Leg Dist Tot Dist Heading (true) Name
O CYEV APT - 0 ft / 0 m 68.30379˚ -133.48317˚ - 0 nm - INUVIK MIKE ZUBKO
YEV VOR - 500 ft / 152 m 68.30806˚ -133.54825˚ 1 nm 1 nm 280° / 280° INUVIK VOR-DME
YGH VOR J516 (AWY-HI) 17,000 ft / 5,182 m 66.23628˚ -128.62306˚ 168 nm 170 nm 135° / 140° FORT GOOD HOPE VOR-DME
O CYVQ APT - 0 ft / 0 m 65.28162˚ -126.79822˚ 72 nm 243 nm 141° / 143° NORMAN WELLS

Altitude Profile

Advertisement - Login to hide

Weather


0- 5 10 15 20 25 30 35+ Temperature / ° C

Clouds and Precipitation
Forecast for 2017-12-18 00:00 UTC. Updated 2 hours ago

Ground ~20,000 ft ~40,000 ft Winds

CYEV

Details ICAO CYEV (YEV)
Name INUVIK MIKE ZUBKO
Region Canada
Timezone America/Inuvik (UTC-7.0)
Stats Elevation 224 ft / 68 m (AMSL)
Location 68.303792° -133.483167°
Runways 1
Magnetic Variation 21.595° E

METAR

CYEV 172100Z 35008KT 15SM -SN OVC010 M17/M20 A2978 RMK SC8 SLP096

Decode

TAF

TAF CYEV 171838Z 1719/1807 VRB03KT P6SM -SN OVC015 TEMPO 1719/1804 P6SM NSW SCT015 FM180400 VRB03KT P6SM IC FEW030 RMK NXT FCST BY 180100Z

Decode

Departure Runways

ID Width Length Bearing (true) Bearing (mag) Surface Threshold Offset Overrun Length
06 150 ft / 46 m 5,982 ft / 1,823 m 85.80° 64.21° Asphalt 0 ft / 0 m 0 ft / 0 m
24 150 ft / 46 m 5,982 ft / 1,823 m 265.84° 244.25° Asphalt 0 ft / 0 m 0 ft / 0 m

CYVQ

Details ICAO CYVQ (YVQ)
Name NORMAN WELLS
Region Canada
Timezone America/Yellowknife (UTC-7.0)
Stats Elevation 238 ft / 73 m (AMSL)
Location 65.281616° -126.798222°
Runways 1
Magnetic Variation 21.029° E

METAR

CYVQ 172100Z 29014G22KT 4SM -SN DRSN OVC049 M13/M16 A2963 RMK SN4SC4 SLP045

Decode

TAF

TAF CYVQ 171739Z 1718/1806 29015G25KT P6SM -SN OVC050 TEMPO 1718/1722 21/2SM -SN VV020 FM172200 29015G25KT P6SM -SN OVC040 TEMPO 1722/1806 4SM -SN OVC020 RMK NXT FCST BY 180000Z

Decode

Destination Runways

ID Width Length Bearing (true) Bearing (mag) Surface Threshold Offset Overrun Length
09 150 ft / 46 m 5,977 ft / 1,822 m 118.74° 97.71° Asphalt 0 ft / 0 m 0 ft / 0 m
27 150 ft / 46 m 5,977 ft / 1,822 m 298.78° 277.75° Asphalt 0 ft / 0 m 0 ft / 0 m

Popular Alternatives